Latest Weather Observations for Lake Macquarie - Cooranbong

IDN60901

Issued at 2:32 pm EDT Monday 2 March 2015 (issued every 10 minutes, with the page automatically refreshed every 10 minutes)

About weather observations | Map of Sydney area stations | Latest observations for Sydney area | Other Formats
Station Details ID: 061412 Name: LAKE MACQUARIE AWS Lat: -33.09 Lon: 151.46 Height: 6.0 m
Data from the previous 72 hours. | See also: Recent months at Lake Macquarie - Cooranbong
Date/Time
EDT
Tmp

°C
App
Tmp
°C
Dew
Point
°C
Rel
Hum
%
Delta-T

°C
Wind Press
QNH
hPa
Press
MSL
hPa
Rain
since
9 am
mm
Dir
 
Spd
km/h
Gust
km/h
Spd
kts
Gust
kts
02/02:30pm 22.4 23.1 16.0 67 3.9 SSE 7 13 4 7 1017.8 1017.8 0.0
02/02:00pm 22.4 23.1 16.0 67 3.9 SSE 7 15 4 8 1018.2 1018.2 0.0
02/01:30pm 23.0 23.3 16.1 65 4.2 SSE 9 20 5 11 1018.3 1018.3 0.0
02/01:00pm 22.9 23.5 15.7 64 4.3 S 7 19 4 10 1018.6 1018.6 0.0
02/12:30pm 22.7 23.4 15.5 64 4.3 S 6 15 3 8 1018.9 1018.9 0.0
02/12:00pm 22.3 22.8 15.6 66 4.0 SSW 7 13 4 7 1019.1 1019.1 0.0
02/11:30am 22.6 23.5 16.2 67 3.9 S 6 13 3 7 1019.1 1019.1 0.0
02/11:00am 22.1 22.5 15.2 65 4.1 S 7 13 4 7 1019.1 1019.1 0.0
02/10:30am 21.3 21.5 14.7 66 3.9 SSW 7 13 4 7 1019.3 1019.3 0.0
02/10:00am 20.9 21.2 14.5 67 3.7 SW 6 11 3 6 1019.0 1019.0 0.0
02/09:30am 20.3 20.5 14.7 70 3.3 SW 7 15 4 8 1018.7 1018.7 0.0
02/09:00am 19.9 20.1 14.3 70 3.2 SW 6 17 3 9 1018.3 1018.3 12.0
02/08:30am 19.7 19.7 14.1 70 3.2 SW 7 13 4 7 1018.1 1018.1 12.0
02/08:00am 19.3 19.7 14.8 75 2.6 SW 6 11 3 6 1017.8 1017.8 12.0
02/07:30am 18.1 19.5 15.5 85 1.5 SW 2 4 1 2 1017.5 1017.5 12.0
02/07:00am 18.1 19.4 15.2 83 1.7 WSW 2 6 1 3 1017.0 1017.0 12.0
02/06:30am 19.6 20.8 15.0 75 2.7 WSW 2 6 1 3 1016.7 1016.7 12.0
02/06:00am 19.6 20.5 15.0 75 2.7 SW 4 7 2 4 1016.6 1016.6 12.0
02/05:30am 19.5 20.8 15.2 76 2.5 SSW 2 6 1 3 1016.3 1016.3 12.0
02/05:00am 18.6 19.8 15.8 84 1.7 S 4 13 2 7 1016.1 1016.1 12.0
02/04:30am 18.8 21.2 16.9 89 1.1 CALM 0 0 0 0 1015.8 1015.8 12.0
02/04:00am 18.9 21.3 16.9 88 1.2 CALM 0 0 0 0 1016.0 1016.0 12.0
02/03:30am 18.9 21.0 16.3 85 1.6 CALM 0 0 0 0 1016.1 1016.1 12.0
02/03:00am 18.8 19.1 15.9 83 1.7 SSE 9 17 5 9 1016.3 1016.3 11.8
02/02:30am 20.0 21.8 15.6 76 2.6 CALM 0 4 0 2 1016.4 1016.4 11.8
02/02:00am 20.5 21.4 15.1 71 3.2 SW 4 13 2 7 1016.3 1016.3 11.8
02/01:30am 20.8 22.1 15.1 70 3.4 SSW 2 6 1 3 1016.5 1016.5 11.8
02/01:00am 20.8 21.1 14.9 69 3.5 S 7 24 4 13 1016.3 1016.3 11.8
02/12:30am 20.4 20.2 15.6 74 2.9 S 11 26 6 14 1016.3 1016.3 11.8
02/12:00am 20.3 20.4 16.5 79 2.3 S 11 24 6 13 1016.4 1016.4 11.6
 
Date/Time
EDT
Tmp

°C
App
Tmp
°C
Dew
Point
°C
Rel
Hum
%
Delta-T

°C
Wind Press
QNH
hPa
Press
MSL
hPa
Rain
since
9 am
mm
Dir
 
Spd
km/h
Gust
km/h
Spd
kts
Gust
kts
01/11:30pm 20.4 21.6 16.8 80 2.2 SW 6 11 3 6 1016.1 1016.1 11.6
01/11:00pm 20.3 20.9 16.7 80 2.2 S 9 22 5 12 1015.8 1015.8 11.6
01/10:30pm 19.8 21.9 18.1 90 1.1 SSW 4 11 2 6 1015.4 1015.4 11.6
01/10:00pm 20.1 21.5 18.6 91 0.9 S 9 22 5 12 1014.9 1014.9 11.4
01/09:30pm 20.6 21.8 19.1 91 0.9 SSW 11 28 6 15 1014.0 1014.0 11.0
01/09:00pm 21.3 22.7 19.6 90 1.1 S 11 30 6 16 1013.2 1013.2 10.4
01/08:30pm 22.0 24.7 20.6 92 0.9 S 7 15 4 8 1012.2 1012.2 10.4
01/08:00pm 21.9 25.1 20.5 92 0.9 S 4 9 2 5 1011.4 1011.4 10.2
01/07:30pm 21.8 24.6 20.4 92 0.9 S 6 13 3 7 1010.4 1010.4 10.2
01/07:00pm 22.2 25.4 21.2 94 0.7 SSE 6 22 3 12 1009.4 1009.4 10.2
01/06:30pm 21.8 24.6 20.8 94 0.6 S 7 19 4 10 1009.2 1009.2 9.4
01/05:47pm 24.1 24.5 21.0 83 2.0 S 20 61 11 33 1006.6 1006.6 3.4
01/05:43pm 24.7 26.4 21.0 80 2.4 S 13 32 7 17 1005.7 1005.7 3.2
01/05:30pm 25.1 23.3 16.0 57 5.5 N 20 65 11 35 1003.7 1003.7 2.6
01/05:27pm 25.5 24.4 16.4 57 5.6 NNW 17 65 9 35 1003.4 1003.4 2.2
01/05:00pm 30.4 32.3 16.8 44 8.6 NNE 2 7 1 4 1002.5 1002.4 0.0
01/04:30pm 31.0 32.5 18.0 45 8.3 NNW 7 13 4 7 1003.1 1003.1 0.0
01/04:00pm 32.1 33.0 17.6 42 9.3 NW 9 17 5 9 1003.2 1003.2 0.0
01/03:30pm 30.3 30.2 17.0 44 8.4 NW 13 28 7 15 1003.8 1003.8 0.0
01/03:00pm 34.1 34.4 15.1 32 11.8 WNW 7 22 4 12 1003.7 1003.7 0.0
01/02:30pm 36.0 37.1 18.1 34 11.7 N 9 15 5 8 1003.9 1003.9 0.0
01/02:00pm 35.5 36.1 16.8 33 12.0 NW 9 20 5 11 1004.6 1004.6 0.0
01/01:30pm 34.7 35.0 17.9 37 10.9 NNW 13 20 7 11 1004.9 1004.9 0.0
01/01:00pm 34.6 36.0 18.6 38 10.5 NW 9 24 5 13 1005.3 1005.3 0.0
01/12:30pm 33.7 35.4 18.6 40 9.8 NNW 7 15 4 8 1005.7 1005.7 0.0
01/12:00pm 33.0 34.9 19.8 45 8.8 NNW 9 19 5 10 1006.1 1006.1 0.0
01/11:30am 32.2 34.0 19.5 47 8.3 NW 9 15 5 8 1006.5 1006.5 0.0
01/11:00am 31.3 32.5 19.0 48 8.0 NNW 11 20 6 11 1006.4 1006.4 0.0
01/10:30am 30.7 32.7 20.0 52 7.1 NNW 9 19 5 10 1006.7 1006.6 0.0
01/10:00am 29.4 31.6 19.7 56 6.4 NNW 7 17 4 9 1006.7 1006.6 0.0
01/09:30am 26.6 31.0 21.4 73 3.5 CALM 0 4 0 2 1006.9 1006.8 0.0
01/09:00am 23.6 27.8 21.7 89 1.3 SE 2 6 1 3 1007.0 1006.9 0.2
01/08:30am 21.2 25.4 20.9 98 0.2 CALM 0 2 0 1 1007.0 1006.9 0.0
01/08:00am 19.0 22.1 18.7 98 0.2 CALM 0 0 0 0 1007.0 1006.9 0.0
01/07:30am 17.4 19.8 16.9 97 0.3 CALM 0 0 0 0 1006.8 1006.7 0.0
01/07:00am 16.9 19.0 16.3 96 0.4 CALM 0 0 0 0 1006.6 1006.5 0.0
01/06:30am 16.8 18.9 16.2 96 0.4 CALM 0 0 0 0 1006.5 1006.4 0.0
01/06:00am 17.0 19.2 16.5 97 0.3 CALM 0 0 0 0 1006.2 1006.1 0.0
01/05:30am 17.0 19.2 16.4 96 0.4 CALM 0 0 0 0 1006.1 1006.0 0.0
01/05:00am 17.1 19.3 16.5 96 0.4 CALM 0 0 0 0 1006.0 1005.9 0.0
01/04:30am 17.2 19.4 16.6 96 0.4 CALM 0 0 0 0 1006.0 1005.9 0.0
01/04:00am 17.4 19.7 16.8 96 0.4 CALM 0 0 0 0 1006.1 1006.0 0.0
01/03:30am 17.6 20.0 17.0 96 0.4 CALM 0 0 0 0 1006.4 1006.3 0.0
01/03:00am 17.9 20.3 17.1 95 0.5 CALM 0 0 0 0 1006.7 1006.6 0.0
01/02:30am 18.0 20.5 17.2 95 0.5 CALM 0 0 0 0 1006.9 1006.8 0.0
01/02:00am 18.4 21.0 17.6 95 0.5 CALM 0 0 0 0 1007.3 1007.2 0.0
01/01:30am 18.6 21.3 17.8 95 0.5 CALM 0 0 0 0 1007.6 1007.5 0.0
01/01:00am 18.9 21.8 18.1 95 0.5 CALM 0 0 0 0 1008.0 1007.9 0.0
01/12:30am 19.0 21.9 18.2 95 0.5 CALM 0 0 0 0 1008.2 1008.1 0.0
01/12:00am 19.4 22.5 18.6 95 0.5 CALM 0 0 0 0 1008.5 1008.5 0.0
 
Date/Time
EDT
Tmp

°C
App
Tmp
°C
Dew
Point
°C
Rel
Hum
%
Delta-T

°C
Wind Press
QNH
hPa
Press
MSL
hPa
Rain
since
9 am
mm
Dir
 
Spd
km/h
Gust
km/h
Spd
kts
Gust
kts
28/11:30pm 20.1 23.5 19.3 95 0.5 CALM 0 0 0 0 1008.7 1008.7 0.0
28/11:00pm 20.1 23.5 19.3 95 0.5 CALM 0 0 0 0 1008.8 1008.8 0.0
28/10:30pm 20.3 23.7 19.3 94 0.6 CALM 0 0 0 0 1009.0 1009.0 0.0
28/10:00pm 20.8 24.0 19.8 94 0.6 N 2 6 1 3 1009.3 1009.3 0.0
28/09:30pm 20.9 24.4 19.6 92 0.8 CALM 0 0 0 0 1009.1 1009.1 0.0
28/09:00pm 21.3 24.9 19.8 91 1.0 CALM 0 0 0 0 1008.9 1008.9 0.0
28/08:30pm 22.2 26.1 20.3 89 1.2 CALM 0 0 0 0 1008.6 1008.6 0.0
28/08:00pm 22.6 26.3 19.9 85 1.7 CALM 0 0 0 0 1008.6 1008.6 0.0
28/07:30pm 24.0 27.7 19.9 78 2.6 CALM 0 2 0 1 1008.4 1008.4 0.0
28/07:00pm 25.1 27.8 20.6 76 2.9 ESE 7 11 4 6 1008.2 1008.1 0.0
28/06:30pm 25.5 28.1 20.5 74 3.3 E 7 11 4 6 1008.1 1008.0 0.0
28/06:00pm 25.8 27.6 20.4 72 3.5 E 11 20 6 11 1008.1 1008.0 0.0
28/05:30pm 25.9 27.4 20.5 72 3.5 ESE 13 19 7 10 1008.0 1007.9 0.0
28/05:00pm 26.3 28.0 20.2 69 4.0 E 11 17 6 9 1008.2 1008.1 0.0
28/04:30pm 25.9 27.8 19.8 69 4.0 E 9 17 5 9 1008.4 1008.4 0.0
28/04:00pm 26.1 27.4 20.2 70 3.9 E 13 20 7 11 1008.4 1008.4 0.0
28/03:30pm 25.7 26.6 19.3 67 4.1 E 13 19 7 10 1008.5 1008.5 0.0
28/03:00pm 27.7 29.0 19.2 60 5.5 E 11 19 6 10 1008.8 1008.8 0.0
28/02:30pm 27.6 29.6 19.9 63 5.0 ESE 9 15 5 8 1009.1 1009.1 0.0
28/02:00pm 27.6 29.7 20.2 64 4.9 ENE 9 17 5 9 1009.5 1009.5 0.0
28/01:30pm 26.7 28.6 19.8 66 4.5 E 9 15 5 8 1009.6 1009.6 0.0
28/01:00pm 26.9 29.5 20.5 68 4.2 ESE 7 13 4 7 1010.1 1010.1 0.0
28/12:30pm 26.7 29.8 20.3 68 4.2 ENE 4 9 2 5 1010.4 1010.4 0.0
28/12:00pm 25.1 27.8 19.5 71 3.6 E 4 7 2 4 1010.5 1010.5 0.0
28/11:30am 24.8 27.8 19.2 71 3.6 SE 2 7 1 4 1010.8 1010.8 0.0
28/11:00am 25.0 28.1 19.6 72 3.5 ESE 2 6 1 3 1011.1 1011.1 0.0
28/10:30am 23.9 27.3 19.4 76 2.9 CALM 0 0 0 0 1011.4 1011.4 0.0
28/10:00am 22.6 25.9 19.9 85 1.7 N 2 4 1 2 1011.4 1011.4 0.0
28/09:30am 21.1 25.0 20.3 95 0.5 CALM 0 2 0 1 1011.5 1011.5 0.0
28/09:00am 19.8 23.3 19.5 98 0.2 CALM 0 2 0 1 1011.4 1011.4 0.2
28/08:30am 19.1 22.3 18.9 99 0.1 CALM 0 0 0 0 1011.3 1011.3 0.2
28/08:00am 17.9 20.6 17.7 99 0.1 CALM 0 0 0 0 1011.2 1011.2 0.2
28/07:30am 16.8 19.0 16.5 98 0.2 CALM 0 0 0 0 1010.8 1010.8 0.2
28/07:00am 15.4 17.0 14.9 97 0.3 CALM 0 0 0 0 1010.7 1010.7 0.2
28/06:30am 15.7 17.4 15.2 97 0.3 CALM 0 0 0 0 1010.4 1010.4 0.2
28/06:00am 15.7 17.4 15.2 97 0.3 CALM 0 0 0 0 1010.2 1010.2 0.2
28/05:30am 15.5 17.1 14.9 96 0.3 CALM 0 0 0 0 1010.0 1010.0 0.2
28/05:00am 15.9 17.6 15.3 96 0.3 CALM 0 0 0 0 1009.7 1009.7 0.2
28/04:30am 16.2 18.0 15.6 96 0.3 CALM 0 0 0 0 1009.8 1009.8 0.2
28/04:00am 16.4 18.3 15.8 96 0.4 CALM 0 0 0 0 1009.8 1009.8 0.2
28/03:30am 16.5 18.5 15.9 96 0.4 CALM 0 0 0 0 1009.7 1009.7 0.2
28/03:00am 16.9 19.0 16.3 96 0.4 CALM 0 0 0 0 1009.8 1009.8 0.2
28/02:30am 17.1 19.3 16.5 96 0.4 CALM 0 0 0 0 1009.9 1009.9 0.2
28/02:00am 17.3 19.6 16.7 96 0.4 CALM 0 0 0 0 1010.1 1010.1 0.2
28/01:30am 17.6 19.9 16.8 95 0.5 CALM 0 0 0 0 1010.5 1010.5 0.0
28/01:00am 17.9 20.3 17.1 95 0.5 CALM 0 0 0 0 1010.7 1010.7 0.0
28/12:30am 18.2 20.8 17.4 95 0.5 CALM 0 0 0 0 1010.9 1010.9 0.0
28/12:00am 18.6 21.3 17.8 95 0.5 CALM 0 0 0 0 1011.3 1011.3 0.0
 
Date/Time
EDT
Tmp

°C
App
Tmp
°C
Dew
Point
°C
Rel
Hum
%
Delta-T

°C
Wind Press
QNH
hPa
Press
MSL
hPa
Rain
since
9 am
mm
Dir
 
Spd
km/h
Gust
km/h
Spd
kts
Gust
kts
27/11:30pm 18.5 21.1 17.5 94 0.6 CALM 0 0 0 0 1011.4 1011.4 0.0
27/11:00pm 18.9 21.7 17.9 94 0.6 CALM 0 0 0 0 1011.5 1011.5 0.0
27/10:30pm 19.4 22.4 18.4 94 0.6 CALM 0 0 0 0 1011.4 1011.4 0.0
27/10:00pm 19.7 22.7 18.5 93 0.7 CALM 0 0 0 0 1011.3 1011.3 0.0
27/09:30pm 20.2 23.4 18.9 92 0.8 CALM 0 0 0 0 1011.1 1011.1 0.0
27/09:00pm 20.7 24.0 19.0 90 1.1 CALM 0 0 0 0 1010.8 1010.8 0.0
27/08:30pm 21.3 24.4 18.7 85 1.6 CALM 0 0 0 0 1010.5 1010.5 0.0
27/08:00pm 22.1 25.2 18.7 81 2.1 CALM 0 0 0 0 1009.9 1009.9 0.0
27/07:30pm 23.3 25.7 18.8 76 2.8 E 4 6 2 3 1009.5 1009.5 0.0
27/07:00pm 23.9 26.3 18.8 73 3.2 E 4 9 2 5 1009.4 1009.4 0.0
27/06:30pm 25.0 26.8 18.7 68 4.0 ESE 7 13 4 7 1009.1 1009.1 0.0
27/06:00pm 25.5 26.8 18.4 65 4.5 ESE 9 15 5 8 1008.9 1008.9 0.0
27/05:30pm 26.1 26.9 18.2 61 5.0 ESE 11 17 6 9 1008.8 1008.8 0.0
27/05:00pm 26.3 28.1 18.4 61 5.0 ESE 6 9 3 5 1008.8 1008.8 0.0
27/04:30pm 26.2 27.1 18.3 61 5.0 ESE 11 17 6 9 1008.7 1008.7 0.0
27/04:00pm 27.1 28.5 18.7 60 5.4 ESE 9 13 5 7 1008.7 1008.7 0.0
27/03:30pm 26.4 27.4 17.7 58 5.5 ESE 9 19 5 10 1008.8 1008.8 0.0
27/03:00pm 25.8 27.9 19.0 66 4.4 ESE 6 13 3 7 1009.1 1009.1 0.0

Latest Capital City Observations: Canberra | Sydney | Melbourne | Brisbane | Adelaide | Perth | Hobart | Darwin

Other Formats:

Comma delimited format used in spreadsheet applications
http://www.bom.gov.au/fwo/IDN60901/IDN60901.95767.axf

JavaScript Object Notation format (JSON) in row-major order
http://www.bom.gov.au/fwo/IDN60901/IDN60901.95767.json